Time;durP1;ratioP1;P1;durP2;ratioP2;P2;SDS_P1;SDS_P2;PMS_P1;PMS_P2;Temp;Humidity;BMP_temperature;BMP_pressure;BME280_temperature;BME280_humidity;BME280_pressure;Samples;Min_cycle;Max_cycle;Signal;HPM_P1;HPM_P2
2022/07/09 00:00:42;;;;;;;6.95;2.15;;;;;;;22.08;43.74;99490.81;4954898;28;20114;-50
2022/07/09 00:03:08;;;;;;;8.75;2.33;;;;;;;21.73;44.66;99494.81;4955150;29;20568;-49
2022/07/09 00:05:34;;;;;;;6.93;2.60;;;;;;;21.86;44.77;99487.44;4955102;29;20027;-50
2022/07/09 00:07:59;;;;;;;15.27;2.90;;;;;;;22.14;43.98;99489.78;4955063;28;20023;-49
2022/07/09 00:10:25;;;;;;;50.10;45.05;;;;;;;22.34;43.88;99491.84;4954950;28;20031;-50
2022/07/09 00:12:51;;;;;;;8.73;4.45;;;;;;;22.34;43.73;99483.81;4953659;29;20425;-49
2022/07/09 00:15:17;;;;;;;8.90;2.75;;;;;;;22.14;44.21;99484.44;4954823;29;20023;-50
2022/07/09 00:17:42;;;;;;;9.60;2.30;;;;;;;22.13;44.45;99485.53;4953602;29;20493;-50
2022/07/09 00:20:09;;;;;;;8.13;2.75;;;;;;;22.23;44.49;99484.75;4955043;29;20035;-50
2022/07/09 00:22:34;;;;;;;6.10;2.45;;;;;;;22.38;44.31;99486.78;4953414;29;20072;-50
2022/07/09 00:25:01;;;;;;;7.28;2.85;;;;;;;22.30;44.63;99493.41;4954757;28;20055;-49
2022/07/09 00:27:27;;;;;;;7.13;2.00;;;;;;;22.19;44.70;99490.88;4954757;28;20023;-49
2022/07/09 00:29:53;;;;;;;8.20;2.53;;;;;;;21.88;44.93;99498.69;4954666;28;20028;-49
2022/07/09 00:32:18;;;;;;;7.00;2.72;;;;;;;21.81;45.96;99498.06;4953282;29;20502;-50
2022/07/09 00:34:44;;;;;;;9.85;2.75;;;;;;;21.93;45.15;99498.72;4953287;29;20035;-50
2022/07/09 00:37:11;;;;;;;13.07;3.95;;;;;;;21.91;45.32;99500.84;4954300;28;20126;-50
2022/07/09 00:39:37;;;;;;;8.68;3.25;;;;;;;21.88;45.54;99502.16;4954441;28;20031;-49
2022/07/09 00:42:09;;;;;;;16.80;3.05;;;;;;;21.94;45.48;99503.81;4954408;28;20035;-49
2022/07/09 00:44:36;;;;;;;12.07;2.40;;;;;;;21.81;45.55;99498.91;4953171;29;20098;-50
2022/07/09 00:47:03;;;;;;;15.98;2.28;;;;;;;21.78;45.74;99498.59;4969189;28;20031;-49
2022/07/09 00:49:31;;;;;;;11.50;2.92;;;;;;;21.80;46.05;99496.47;4954455;28;20086;-50
2022/07/09 00:51:58;;;;;;;3.95;1.95;;;;;;;21.68;45.54;99494.75;4954358;28;20118;-49
2022/07/09 00:54:24;;;;;;;8.98;2.97;;;;;;;21.38;46.22;99495.25;4953012;29;20086;-49
2022/07/09 00:56:53;;;;;;;7.68;2.83;;;;;;;21.44;46.56;99499.59;4952972;29;20031;-49
2022/07/09 00:59:20;;;;;;;6.55;2.45;;;;;;;21.52;46.35;99501.03;4952897;29;20033;-49
2022/07/09 01:01:48;;;;;;;9.88;2.38;;;;;;;21.37;46.49;99500.84;4954031;28;20027;-49
2022/07/09 01:04:14;;;;;;;11.35;2.20;;;;;;;21.38;46.51;99510.47;4954086;28;20019;-49
2022/07/09 01:06:40;;;;;;;7.75;2.70;;;;;;;21.17;46.38;99504.91;4952765;29;20042;-49
2022/07/09 01:09:07;;;;;;;9.30;3.05;;;;;;;21.16;46.58;99497.94;4954073;29;20106;-49
2022/07/09 01:11:33;;;;;;;11.30;2.72;;;;;;;21.35;45.81;99496.56;4953487;28;20027;-49
2022/07/09 01:13:59;;;;;;;7.53;2.30;;;;;;;21.40;45.65;99492.34;4953945;28;20035;-50
2022/07/09 01:16:33;;;;;;;7.32;2.95;;;;;;;21.24;46.44;99494.81;4952681;29;20114;-49
2022/07/09 01:18:59;;;;;;;10.10;2.50;;;;;;;21.08;46.67;99496.53;4953938;28;20107;-50
2022/07/09 01:21:25;;;;;;;10.68;2.80;;;;;;;21.13;47.44;99495.78;4953821;28;20138;-49
2022/07/09 01:23:50;;;;;;;6.00;2.50;;;;;;;21.17;46.57;99491.56;4953894;28;20019;-49
2022/07/09 01:26:19;;;;;;;17.90;2.53;;;;;;;20.94;46.59;99487.28;4953793;29;20057;-49
2022/07/09 01:28:46;;;;;;;10.75;2.60;;;;;;;20.77;46.77;99484.69;4952506;29;20023;-49
2022/07/09 01:31:12;;;;;;;16.02;2.60;;;;;;;20.87;47.00;99495.47;4953722;28;20035;-50
2022/07/09 01:33:38;;;;;;;13.18;3.17;;;;;;;21.10;46.79;99491.75;4953801;28;20169;-49
2022/07/09 01:36:06;;;;;;;6.47;2.10;;;;;;;21.20;46.45;99487.56;4953448;28;20398;-49
2022/07/09 01:38:34;;;;;;;8.30;2.63;;;;;;;21.01;46.90;99490.56;4953899;28;20051;-49
2022/07/09 01:40:59;;;;;;;7.22;2.03;;;;;;;21.06;47.11;99495.97;4953539;28;20058;-49
2022/07/09 01:43:25;;;;;;;10.63;2.50;;;;;;;21.13;46.52;99493.91;4953694;29;20027;-50
2022/07/09 01:45:51;;;;;;;13.02;3.75;;;;;;;21.15;46.44;99491.81;4953587;28;20023;-49
2022/07/09 01:48:17;;;;;;;9.60;2.50;;;;;;;21.29;46.02;99480.75;4952312;29;20028;-50
2022/07/09 01:50:43;;;;;;;10.35;2.83;;;;;;;21.21;46.01;99491.84;4953680;28;20114;-49
2022/07/09 01:53:09;;;;;;;6.30;2.60;;;;;;;21.08;46.58;99493.84;4952248;29;20105;-50
2022/07/09 01:55:34;;;;;;;8.20;2.60;;;;;;;20.92;47.01;99494.72;4953539;29;20114;-49
2022/07/09 01:58:00;;;;;;;6.43;2.10;;;;;;;20.53;47.33;99490.19;4953571;28;20034;-49
2022/07/09 02:00:27;;;;;;;6.28;3.25;;;;;;;20.34;48.41;99492.34;4952153;29;20401;-50
2022/07/09 02:02:54;;;;;;;6.78;2.70;;;;;;;20.25;48.94;99485.81;4953357;29;20039;-48
2022/07/09 02:05:21;;;;;;;9.13;2.95;;;;;;;20.41;48.82;99484.16;4952168;29;20023;-49
2022/07/09 02:07:46;;;;;;;11.40;2.97;;;;;;;20.54;48.51;99494.50;4953450;28;20102;-50
2022/07/09 02:10:12;;;;;;;12.07;2.75;;;;;;;20.52;48.38;99488.59;4953382;29;20110;-49
2022/07/09 02:12:39;;;;;;;7.90;3.13;;;;;;;20.45;48.37;99492.50;4953453;28;20058;-50
2022/07/09 02:15:06;;;;;;;12.13;2.53;;;;;;;20.40;48.33;99493.19;4953357;28;20039;-49
2022/07/09 02:17:32;;;;;;;6.18;2.47;;;;;;;20.36;48.65;99492.06;4953376;28;20019;-49
2022/07/09 02:19:58;;;;;;;5.32;2.33;;;;;;;20.31;48.52;99490.16;4952029;29;20031;-49
2022/07/09 02:22:24;;;;;;;13.15;3.28;;;;;;;20.16;48.91;99487.25;4953237;28;20401;-49
2022/07/09 02:24:50;;;;;;;10.98;3.17;;;;;;;20.29;48.65;99486.13;4956678;28;20081;-49
2022/07/09 02:27:15;;;;;;;16.73;2.85;;;;;;;20.48;48.65;99495.47;4956878;29;20098;-50
2022/07/09 02:29:41;;;;;;;8.63;2.80;;;;;;;20.51;48.46;99492.31;4955621;29;20055;-49
2022/07/09 02:32:09;;;;;;;9.48;2.60;;;;;;;20.51;48.23;99491.50;4956782;28;20050;-49
2022/07/09 02:34:34;;;;;;;7.32;2.58;;;;;;;20.51;48.35;99491.50;4955472;29;20535;-50
2022/07/09 02:37:00;;;;;;;6.80;2.85;;;;;;;20.59;48.30;99493.78;4956550;29;20070;-49
2022/07/09 02:39:26;;;;;;;13.55;2.72;;;;;;;20.69;47.84;99491.25;4955428;29;20530;-49
2022/07/09 02:41:52;;;;;;;6.88;5.30;;;;;;;20.65;47.63;99492.00;4955254;29;20074;-49
2022/07/09 02:44:17;;;;;;;5.00;2.70;;;;;;;20.48;47.85;99487.47;4955315;29;20053;-49
2022/07/09 02:46:43;;;;;;;6.47;2.88;;;;;;;20.49;47.99;99490.94;4956549;29;20039;-50
2022/07/09 02:49:10;;;;;;;6.90;2.47;;;;;;;20.40;47.62;99493.19;4956532;28;20027;-49
2022/07/09 02:51:37;;;;;;;9.43;2.60;;;;;;;20.48;47.86;99510.66;4956517;28;20489;-49
2022/07/09 02:54:02;;;;;;;6.65;3.33;;;;;;;20.55;47.57;99495.28;4956430;28;20024;-49
2022/07/09 02:56:28;;;;;;;11.95;3.25;;;;;;;20.51;47.38;99500.31;4955089;29;20027;-49
2022/07/09 02:58:54;;;;;;;15.77;2.72;;;;;;;20.28;47.96;99495.16;4956404;28;20028;-49
2022/07/09 03:01:19;;;;;;;9.00;3.05;;;;;;;20.11;48.30;99492.53;4954882;29;20027;-50
2022/07/09 03:03:46;;;;;;;9.40;2.85;;;;;;;20.08;48.57;99495.66;4954901;29;20031;-50
2022/07/09 03:06:12;;;;;;;8.02;2.70;;;;;;;20.01;48.95;99492.38;4956229;29;20110;-49
2022/07/09 03:08:38;;;;;;;11.18;3.22;;;;;;;20.06;48.80;99493.25;4956223;28;20449;-49
2022/07/09 03:11:06;;;;;;;6.15;2.72;;;;;;;20.12;48.67;99494.94;4954776;29;20505;-49
2022/07/09 03:13:33;;;;;;;13.02;3.45;;;;;;;20.15;48.57;99502.44;4956091;28;20047;-49
2022/07/09 03:15:59;;;;;;;7.68;2.38;;;;;;;20.13;48.36;99496.56;4956042;28;20358;-50
2022/07/09 03:18:25;;;;;;;8.10;3.78;;;;;;;20.04;48.61;99503.34;4956053;29;20031;-49
2022/07/09 03:20:50;;;;;;;11.18;3.40;;;;;;;19.86;49.16;99503.56;4955782;29;20023;-49
2022/07/09 03:23:16;;;;;;;5.47;2.92;;;;;;;19.78;49.03;99503.97;4955919;29;20489;-49
2022/07/09 03:25:42;;;;;;;5.43;2.75;;;;;;;19.77;49.46;99505.03;4955883;28;20030;-50
2022/07/09 03:28:09;;;;;;;6.93;2.50;;;;;;;19.75;49.36;99507.91;4955831;29;20763;-49
2022/07/09 03:30:35;;;;;;;9.95;3.35;;;;;;;19.71;49.44;99514.78;4954528;29;20718;-50
2022/07/09 03:33:01;;;;;;;6.03;2.80;;;;;;;19.66;49.43;99515.47;4955735;29;20038;-49
2022/07/09 03:35:26;;;;;;;10.00;5.05;;;;;;;19.66;49.67;99518.13;4955119;28;20035;-49
2022/07/09 03:37:52;;;;;;;14.57;4.00;;;;;;;19.70;49.56;99513.13;4955525;28;20576;-49
2022/07/09 03:40:18;;;;;;;8.02;2.83;;;;;;;19.56;49.52;99523.28;4954324;29;20046;-49
2022/07/09 03:42:44;;;;;;;9.10;2.63;;;;;;;19.48;49.86;99516.47;4955437;28;20037;-49
2022/07/09 03:45:10;;;;;;;6.30;2.75;;;;;;;19.42;50.20;99514.78;4955574;28;20158;-49
2022/07/09 03:47:36;;;;;;;8.57;2.63;;;;;;;19.49;49.72;99512.75;4954208;29;20027;-50
2022/07/09 03:50:03;;;;;;;12.63;3.22;;;;;;;19.46;49.75;99515.91;4954088;29;20055;-49
2022/07/09 03:52:28;;;;;;;10.80;3.15;;;;;;;19.28;50.12;99524.09;4954068;29;20031;-49
2022/07/09 03:54:54;;;;;;;7.07;2.60;;;;;;;19.25;50.24;99516.56;4954024;29;20163;-49
2022/07/09 03:57:20;;;;;;;9.63;2.88;;;;;;;19.20;50.37;99521.78;4955282;29;20031;-49
2022/07/09 03:59:45;;;;;;;9.25;3.22;;;;;;;19.15;50.62;99523.28;4955245;29;20564;-49
2022/07/09 04:02:11;;;;;;;6.20;3.10;;;;;;;19.20;50.33;99521.78;4955152;29;20038;-49
2022/07/09 04:04:37;;;;;;;9.00;3.13;;;;;;;19.04;50.28;99518.81;4953831;29;20027;-49
2022/07/09 04:07:03;;;;;;;9.88;4.13;;;;;;;18.89;50.99;99521.94;4955065;29;20301;-49
2022/07/09 04:09:29;;;;;;;11.82;4.07;;;;;;;18.99;51.27;99517.91;4955097;28;20041;-49
2022/07/09 04:11:54;;;;;;;11.77;3.30;;;;;;;19.18;50.98;99515.91;4954935;29;20031;-49
2022/07/09 04:14:20;;;;;;;5.75;2.47;;;;;;;19.27;50.35;99517.94;4954996;28;20458;-49
2022/07/09 04:16:46;;;;;;;8.63;3.10;;;;;;;19.21;50.45;99515.41;4954872;29;20115;-49
2022/07/09 04:19:12;;;;;;;21.90;18.02;;;;;;;19.35;50.23;99528.19;4954851;29;20072;-49
2022/07/09 04:21:38;;;;;;;6.40;3.92;;;;;;;19.45;49.93;99529.44;4953389;29;20039;-49
2022/07/09 04:24:04;;;;;;;6.97;2.92;;;;;;;19.52;49.81;99532.78;4954820;28;20059;-49
2022/07/09 04:26:30;;;;;;;12.98;8.73;;;;;;;19.56;49.64;99532.06;4954744;28;20555;-50
2022/07/09 04:28:55;;;;;;;9.18;5.32;;;;;;;19.64;49.31;99533.53;4954715;29;20023;-49
2022/07/09 04:31:21;;;;;;;13.82;3.97;;;;;;;19.83;49.27;99536.03;4953356;29;20493;-49
2022/07/09 04:33:48;;;;;;;5.60;3.13;;;;;;;20.49;47.59;99533.63;4954596;29;20074;-49
2022/07/09 04:36:13;;;;;;;4.55;3.00;;;;;;;21.34;45.45;99535.00;4954208;28;20049;-50
2022/07/09 04:38:39;;;;;;;5.88;2.10;;;;;;;22.17;43.68;99531.25;4953325;29;20125;-49
2022/07/09 04:41:05;;;;;;;13.20;3.28;;;;;;;22.71;42.43;99525.75;4954411;29;20370;-50
2022/07/09 04:43:31;;;;;;;8.48;3.00;;;;;;;23.10;41.32;99532.63;4954485;29;20386;-50
2022/07/09 04:45:57;;;;;;;6.97;2.72;;;;;;;23.33;40.71;99526.03;4954267;28;20031;-50
2022/07/09 04:48:23;;;;;;;12.40;3.17;;;;;;;23.47;40.20;99529.03;4953820;28;20441;-49
2022/07/09 04:50:49;;;;;;;5.93;2.75;;;;;;;23.52;39.98;99529.84;4953029;29;20085;-49
2022/07/09 04:53:15;;;;;;;9.05;2.75;;;;;;;23.59;39.93;99536.81;4954290;28;20485;-49
2022/07/09 04:55:40;;;;;;;11.80;2.47;;;;;;;23.79;39.99;99538.75;4954261;28;20073;-49
2022/07/09 04:58:06;;;;;;;10.68;2.95;;;;;;;24.22;38.86;99539.28;4954264;29;20127;-49
2022/07/09 05:00:34;;;;;;;7.78;2.30;;;;;;;24.87;37.46;99537.59;4954115;28;20456;-50
2022/07/09 05:03:00;;;;;;;10.32;2.90;;;;;;;25.57;36.29;99536.72;4954102;28;20394;-50
2022/07/09 05:05:26;;;;;;;9.02;2.78;;;;;;;26.23;34.86;99538.13;4952818;29;20046;-50
2022/07/09 05:07:52;;;;;;;6.72;2.42;;;;;;;26.73;33.87;99532.56;4954079;29;20027;-49
2022/07/09 05:10:19;;;;;;;74.38;14.60;;;;;;;27.26;33.15;99524.38;4954036;28;20037;-49
2022/07/09 05:12:45;;;;;;;12.68;3.50;;;;;;;27.79;31.93;99526.06;4954011;28;20055;-49
2022/07/09 05:15:11;;;;;;;18.85;2.80;;;;;;;28.18;31.50;99524.09;4954027;28;20054;-49
2022/07/09 05:17:37;;;;;;;16.17;3.17;;;;;;;28.55;30.58;99527.78;4953930;28;20023;-50
2022/07/09 05:20:05;;;;;;;11.57;2.58;;;;;;;29.03;30.06;99525.44;4952594;29;20031;-50
2022/07/09 05:22:32;;;;;;;6.80;2.95;;;;;;;29.63;28.72;99526.34;4953765;28;20038;-50
2022/07/09 05:24:58;;;;;;;10.48;2.60;;;;;;;30.15;28.28;99520.53;4953917;28;20031;-50
2022/07/09 05:27:25;;;;;;;8.90;2.35;;;;;;;30.61;27.43;99525.53;4953798;28;20038;-50
2022/07/09 05:29:51;;;;;;;9.93;5.28;;;;;;;31.03;26.99;99527.94;4953812;29;20023;-49
2022/07/09 05:32:17;;;;;;;18.77;4.35;;;;;;;31.35;26.70;99521.25;4953777;29;20393;-50
2022/07/09 05:34:43;;;;;;;25.75;2.95;;;;;;;31.84;25.79;99526.53;4953803;28;20031;-50
2022/07/09 05:37:09;;;;;;;19.30;2.85;;;;;;;32.11;25.15;99517.22;4952227;29;20052;-50
2022/07/09 05:39:34;;;;;;;39.83;3.78;;;;;;;32.21;25.01;99527.72;4953749;28;20517;-50
2022/07/09 05:42:00;;;;;;;28.17;6.40;;;;;;;32.41;24.41;99526.22;4952350;29;20494;-50
2022/07/09 05:44:26;;;;;;;13.07;2.85;;;;;;;32.65;23.79;99535.75;4953699;29;20047;-50
2022/07/09 05:46:51;;;;;;;21.08;4.18;;;;;;;32.76;23.88;99525.31;4953709;29;20497;-49
2022/07/09 05:49:17;;;;;;;9.63;3.58;;;;;;;32.63;23.40;99530.63;4953680;28;20035;-50
2022/07/09 05:51:43;;;;;;;8.10;2.78;;;;;;;32.85;23.56;99526.06;4953545;28;20031;-50
2022/07/09 05:54:09;;;;;;;14.63;2.40;;;;;;;32.86;23.16;99526.84;4936436;29;20118;-50
2022/07/09 05:56:36;;;;;;;12.05;2.67;;;;;;;32.95;23.06;99527.59;4953539;28;20389;-50
2022/07/09 05:59:03;;;;;;;30.00;4.28;;;;;;;32.99;22.72;99528.53;4955875;28;20023;-50
2022/07/09 06:01:29;;;;;;;48.67;5.57;;;;;;;32.99;23.03;99529.34;4955960;29;20126;-50
2022/07/09 06:03:55;;;;;;;16.20;2.85;;;;;;;32.88;22.75;99527.31;4957400;28;20023;-49
2022/07/09 06:06:21;;;;;;;19.52;3.05;;;;;;;33.01;22.64;99529.00;4956057;29;20093;-49
2022/07/09 06:08:46;;;;;;;20.85;3.13;;;;;;;33.39;22.87;99530.84;4957253;28;20485;-50
2022/07/09 06:11:12;;;;;;;12.98;3.28;;;;;;;33.38;22.18;99534.69;4955978;29;20059;-50
2022/07/09 06:13:38;;;;;;;12.75;2.65;;;;;;;33.69;22.21;99530.78;4957133;29;20030;-50
2022/07/09 06:16:04;;;;;;;12.45;2.38;;;;;;;34.11;21.56;99527.94;4957160;28;20089;-50
2022/07/09 06:18:30;;;;;;;18.23;2.50;;;;;;;34.50;20.98;99526.56;4957150;28;20130;-50
2022/07/09 06:20:55;;;;;;;8.80;1.92;;;;;;;34.75;21.10;99534.75;4955640;29;20122;-50
2022/07/09 06:23:21;;;;;;;4.97;2.00;;;;;;;34.35;20.91;99536.22;4957026;29;20027;-50
2022/07/09 06:25:47;;;;;;;40.22;36.83;;;;;;;34.55;21.42;99539.16;4956925;29;20511;-50
2022/07/09 06:28:13;;;;;;;10.30;3.45;;;;;;;34.96;20.54;99532.72;4956961;28;20020;-50
2022/07/09 06:30:39;;;;;;;11.90;4.20;;;;;;;35.17;20.32;99537.25;4956858;29;20027;-50
2022/07/09 06:33:05;;;;;;;14.52;7.95;;;;;;;35.58;20.11;99533.38;4956840;29;20034;-50
2022/07/09 06:35:31;;;;;;;5.35;1.92;;;;;;;35.82;19.69;99536.34;4956757;29;20125;-50
2022/07/09 06:37:57;;;;;;;14.77;2.20;;;;;;;35.80;19.54;99534.00;4956647;28;20051;-50
2022/07/09 06:40:23;;;;;;;12.85;2.42;;;;;;;35.92;19.36;99539.41;4956732;28;20106;-49
2022/07/09 06:42:48;;;;;;;12.38;2.60;;;;;;;35.80;19.67;99534.00;4955290;29;20027;-49
2022/07/09 06:45:14;;;;;;;24.85;12.70;;;;;;;36.05;19.37;99540.09;4955454;29;20019;-49
2022/07/09 06:47:40;;;;;;;14.13;3.33;;;;;;;36.28;18.73;99540.34;4956522;29;20027;-49
2022/07/09 06:50:06;;;;;;;18.33;2.50;;;;;;;36.52;18.63;99533.09;4956564;28;20033;-49
2022/07/09 06:52:32;;;;;;;11.43;2.50;;;;;;;36.36;19.07;99539.38;4956510;28;20035;-50
2022/07/09 06:54:58;;;;;;;16.55;2.92;;;;;;;36.37;18.82;99534.69;4956492;29;20027;-49
2022/07/09 06:57:24;;;;;;;9.27;4.50;;;;;;;36.49;18.80;99522.88;4956592;28;20498;-49
2022/07/09 06:59:49;;;;;;;7.00;3.33;;;;;;;36.86;18.46;99522.56;4956396;28;20110;-50
2022/07/09 07:02:18;;;;;;;10.60;7.25;;;;;;;37.26;18.00;99518.78;4956196;29;20110;-50
2022/07/09 07:04:44;;;;;;;8.85;2.30;;;;;;;37.53;18.26;99528.72;4954934;29;20027;-50
2022/07/09 07:07:10;;;;;;;5.90;2.45;;;;;;;36.79;18.47;99518.53;4956189;28;20027;-50
2022/07/09 07:09:36;;;;;;;9.18;2.53;;;;;;;36.41;18.98;99532.06;4955162;28;20039;-50
2022/07/09 07:12:01;;;;;;;7.20;2.20;;;;;;;36.32;19.38;99518.53;4956121;29;20509;-50
2022/07/09 07:14:27;;;;;;;10.80;1.80;;;;;;;37.04;18.48;99521.03;4956114;28;20040;-50
2022/07/09 07:16:53;;;;;;;6.10;2.00;;;;;;;37.47;18.06;99518.41;4956118;28;20466;-50
2022/07/09 07:19:22;;;;;;;8.18;2.58;;;;;;;37.89;17.96;99515.72;4955911;28;20028;-50
2022/07/09 07:21:51;;;;;;;12.10;2.47;;;;;;;37.91;17.93;99521.63;4955871;28;20029;-50
2022/07/09 07:24:17;;;;;;;10.73;1.80;;;;;;;37.93;17.70;99513.03;4955929;29;20581;-50
2022/07/09 07:26:42;;;;;;;8.13;2.30;;;;;;;37.80;17.64;99517.09;4955850;29;20102;-50
2022/07/09 07:29:08;;;;;;;6.45;2.10;;;;;;;37.40;17.94;99519.06;4955855;29;20034;-50
2022/07/09 07:31:34;;;;;;;8.02;1.80;;;;;;;37.04;18.58;99523.75;4955699;29;20069;-49
2022/07/09 07:34:00;;;;;;;6.35;1.90;;;;;;;36.74;18.67;99516.06;4955785;28;20122;-50
2022/07/09 07:36:26;;;;;;;5.13;2.00;;;;;;;36.55;18.74;99514.03;4955417;28;20027;-51
2022/07/09 07:38:52;;;;;;;6.13;1.92;;;;;;;36.47;19.48;99516.97;4955755;28;20521;-50
2022/07/09 07:41:19;;;;;;;4.45;1.88;;;;;;;36.38;19.25;99515.22;4955522;28;20035;-50
2022/07/09 07:43:45;;;;;;;4.10;1.65;;;;;;;36.12;19.25;99518.44;4955541;28;20401;-50
2022/07/09 07:46:11;;;;;;;4.65;2.05;;;;;;;35.67;19.83;99518.81;4955530;28;20106;-50
2022/07/09 07:48:37;;;;;;;6.10;2.03;;;;;;;34.91;20.72;99522.03;4955497;28;20102;-50
2022/07/09 07:51:04;;;;;;;4.35;1.85;;;;;;;33.70;21.73;99516.81;4954164;29;20042;-50
2022/07/09 07:53:33;;;;;;;24.00;3.03;;;;;;;32.81;23.01;99512.31;4955693;28;20042;-50
2022/07/09 07:56:06;;;;;;;5.05;2.03;;;;;;;31.86;23.81;99521.56;4954090;29;20035;-49
2022/07/09 07:58:33;;;;;;;5.68;2.08;;;;;;;30.99;25.33;99519.63;4955364;28;20035;-49
2022/07/09 08:00:59;;;;;;;27.85;25.27;;;;;;;30.56;25.75;99522.94;4955140;28;20031;-50
2022/07/09 08:03:25;;;;;;;5.43;2.42;;;;;;;30.57;25.95;99527.28;4953926;29;20032;-50
2022/07/09 08:05:51;;;;;;;5.80;1.90;;;;;;;30.49;25.63;99525.34;4955068;28;20106;-50
2022/07/09 08:08:18;;;;;;;5.25;1.85;;;;;;;30.14;26.41;99516.19;4953792;29;20032;-49
2022/07/09 08:10:45;;;;;;;5.95;1.90;;;;;;;30.38;26.45;99522.06;4953876;29;20034;-48
2022/07/09 08:13:12;;;;;;;9.43;2.40;;;;;;;32.31;24.63;99510.28;4955000;28;20027;-50
2022/07/09 08:15:38;;;;;;;9.85;2.15;;;;;;;34.08;22.13;99521.25;4955014;28;20069;-50
2022/07/09 08:18:05;;;;;;;5.65;2.45;;;;;;;35.58;20.95;99506.06;4953659;29;20474;-50
2022/07/09 08:20:31;;;;;;;6.57;2.15;;;;;;;36.84;19.82;99509.25;4954867;28;20019;-50
2022/07/09 08:22:56;;;;;;;8.00;2.63;;;;;;;37.56;19.37;99505.28;4954666;29;20077;-48
2022/07/09 08:25:22;;;;;;;5.13;1.88;;;;;;;38.33;18.60;99493.34;4954776;29;20039;-47
2022/07/09 08:27:49;;;;;;;12.85;2.42;;;;;;;39.15;17.49;99493.78;4953467;29;20035;-50
2022/07/09 08:30:15;;;;;;;8.52;2.10;;;;;;;39.82;16.48;99486.69;4954634;29;20374;-49
2022/07/09 08:32:41;;;;;;;6.47;2.13;;;;;;;40.16;16.19;99485.81;4953431;29;20042;-49
2022/07/09 08:35:07;;;;;;;5.65;1.77;;;;;;;40.28;15.88;99491.81;4954896;28;20019;-49
2022/07/09 08:37:33;;;;;;;12.07;2.20;;;;;;;40.48;15.75;99494.34;4954329;28;20043;-50
2022/07/09 08:40:00;;;;;;;5.03;1.98;;;;;;;40.57;15.72;99486.56;4953273;29;20398;-50
2022/07/09 08:42:26;;;;;;;4.95;1.80;;;;;;;41.10;15.07;99472.28;4954465;28;20110;-52
2022/07/09 08:44:54;;;;;;;13.77;2.92;;;;;;;41.43;15.20;99478.69;4954437;28;20058;-52
2022/07/09 08:47:21;;;;;;;7.97;1.83;;;;;;;41.62;14.83;99474.06;4954383;28;20119;-51
2022/07/09 08:49:48;;;;;;;8.65;2.35;;;;;;;41.49;14.22;99474.41;4954385;28;20015;-52
2022/07/09 08:52:15;;;;;;;9.52;3.70;;;;;;;40.96;14.53;99472.22;4954317;28;20035;-52
2022/07/09 08:54:43;;;;;;;5.00;1.88;;;;;;;40.91;14.69;99467.88;4953053;29;20029;-52
2022/07/09 08:57:08;;;;;;;10.52;1.98;;;;;;;41.00;14.76;99469.50;4954227;28;20118;-52
2022/07/09 08:59:34;;;;;;;9.30;1.98;;;;;;;41.18;14.77;99466.84;4954201;28;20098;-52
2022/07/09 09:02:05;;;;;;;9.68;3.83;;;;;;;41.65;13.95;99467.75;4954034;28;20020;-52
2022/07/09 09:04:32;;;;;;;8.15;1.67;;;;;;;41.78;13.71;99466.19;4954470;28;20452;-52
2022/07/09 09:06:57;;;;;;;4.93;1.70;;;;;;;41.57;14.12;99463.38;4954131;28;20086;-52
2022/07/09 09:09:23;;;;;;;22.08;5.40;;;;;;;41.59;13.99;99469.28;4952793;29;20529;-52
2022/07/09 09:11:49;;;;;;;4.70;1.55;;;;;;;41.42;13.82;99468.88;4952778;29;20032;-52
2022/07/09 09:14:22;;;;;;;6.43;1.42;;;;;;;41.09;13.96;99469.91;4952736;29;20493;-52
2022/07/09 09:16:49;;;;;;;5.97;1.45;;;;;;;41.36;14.17;99475.16;4953983;28;20506;-52
2022/07/09 09:19:15;;;;;;;2.80;1.33;;;;;;;41.04;14.22;99462.03;4952655;29;20031;-52
2022/07/09 09:21:40;;;;;;;12.10;2.40;;;;;;;40.84;14.83;99467.06;4954080;28;20027;-52
2022/07/09 09:24:06;;;;;;;13.20;2.30;;;;;;;40.79;14.94;99459.97;4968672;28;20490;-52
2022/07/09 09:26:35;;;;;;;13.68;1.90;;;;;;;40.39;14.71;99455.34;4953866;28;20038;-51
2022/07/09 09:29:03;;;;;;;45.33;4.75;;;;;;;40.53;14.80;99460.97;4953842;28;20393;-51
2022/07/09 09:31:36;;;;;;;25.85;3.10;;;;;;;40.87;13.94;99455.25;4968573;28;20056;-52
2022/07/09 09:34:08;;;;;;;17.02;2.40;;;;;;;41.32;13.91;99453.09;4952010;28;20110;-52
2022/07/09 09:36:36;;;;;;;28.77;2.58;;;;;;;41.59;13.51;99450.00;4953692;28;20090;-52
2022/07/09 09:39:22;;;;;;;19.27;2.55;;;;;;;41.52;13.87;99448.81;4953734;28;20414;-51
2022/07/09 09:41:50;;;;;;;29.85;8.45;;;;;;;41.46;14.05;99444.06;4953654;28;20024;-52
2022/07/09 09:44:23;;;;;;;24.52;3.95;;;;;;;41.27;14.08;99436.94;4953744;28;20020;-52
2022/07/09 09:46:49;;;;;;;;;;;;;;;41.51;14.46;99438.16;4954136;28;20586;-52
2022/07/09 09:49:15;;;;;;;21.95;3.42;;;;;;;41.46;14.49;99430.31;4953685;28;20014;-51
2022/07/09 09:51:49;;;;;;;8.35;2.50;;;;;;;41.64;13.81;99424.84;4953593;28;20074;-53
2022/07/09 09:54:18;;;;;;;11.15;2.38;;;;;;;41.72;13.99;99424.44;4952343;29;20027;-52
2022/07/09 09:56:44;;;;;;;15.40;2.05;;;;;;;41.71;13.73;99433.09;4953595;28;20110;-52
2022/07/09 09:59:11;;;;;;;15.18;2.78;;;;;;;41.55;14.24;99430.69;4952376;29;20497;-52
2022/07/09 10:01:39;;;;;;;10.77;4.50;;;;;;;41.32;14.43;99431.06;4953467;28;20070;-52
2022/07/09 10:04:06;;;;;;;17.73;2.67;;;;;;;41.23;14.36;99433.38;4953570;28;20027;-53
2022/07/09 10:06:33;;;;;;;34.30;30.90;;;;;;;41.13;14.54;99424.69;4953503;28;20078;-52
2022/07/09 10:09:01;;;;;;;8.80;3.40;;;;;;;40.90;14.83;99429.72;4953526;28;20024;-51
2022/07/09 10:11:43;;;;;;;17.08;2.30;;;;;;;40.50;14.95;99432.25;4953452;28;20023;-52
2022/07/09 10:14:29;;;;;;;14.27;2.75;;;;;;;39.94;15.82;99436.16;4952231;29;20115;-52
2022/07/09 10:16:55;;;;;;;13.55;2.17;;;;;;;40.09;15.59;99434.31;4938061;29;20084;-53
2022/07/09 10:19:25;;;;;;;11.45;2.22;;;;;;;40.48;15.13;99431.06;4953394;28;20441;-52
2022/07/09 10:21:55;;;;;;;17.92;6.50;;;;;;;40.92;14.85;99432.88;4953200;28;20046;-51
2022/07/09 10:24:32;;;;;;;6.30;2.80;;;;;;;40.90;14.93;99429.72;4952063;29;20078;-52
2022/07/09 10:27:11;;;;;;;7.93;1.73;;;;;;;40.88;15.10;99424.59;4953369;28;20028;-50
2022/07/09 10:29:53;;;;;;;7.60;1.65;;;;;;;41.10;14.74;99430.97;4953279;28;20524;-52
2022/07/09 10:32:42;;;;;;;19.10;7.43;;;;;;;41.29;14.41;99427.13;4953363;28;20038;-50
2022/07/09 10:35:08;;;;;;;7.20;1.67;;;;;;;41.28;14.75;99425.53;4953287;28;20031;-52
2022/07/09 10:37:44;;;;;;;7.40;1.52;;;;;;;40.83;15.01;99421.41;4953110;28;20090;-52
2022/07/09 10:40:15;;;;;;;7.80;2.00;;;;;;;41.07;15.09;99418.00;4953146;28;20114;-52
2022/07/09 10:42:44;;;;;;;5.97;1.92;;;;;;;40.99;15.03;99423.84;4951857;29;20023;-52
2022/07/09 10:45:35;;;;;;;6.78;1.75;;;;;;;40.85;15.33;99419.06;4954213;28;20429;-51
2022/07/09 10:48:03;;;;;;;5.85;1.77;;;;;;;41.03;14.92;99425.44;4955646;29;20043;-51
2022/07/09 10:50:30;;;;;;;12.70;10.60;;;;;;;41.25;14.78;99418.06;4939351;29;20055;-53
2022/07/09 10:52:57;;;;;;;4.40;1.30;;;;;;;41.40;14.70;99413.38;4956522;28;20401;-52
2022/07/09 10:55:25;;;;;;;10.85;1.77;;;;;;;41.29;14.62;99410.59;4956741;28;20027;-51
2022/07/09 10:57:52;;;;;;;6.53;1.70;;;;;;;41.15;14.45;99404.22;4956465;28;20398;-52
2022/07/09 11:00:26;;;;;;;6.95;1.40;;;;;;;41.22;14.08;99399.56;4956274;28;20027;-52
2022/07/09 11:03:00;;;;;;;6.13;1.60;;;;;;;41.54;14.08;99398.81;4956357;28;20027;-52
2022/07/09 11:05:30;;;;;;;6.72;1.73;;;;;;;41.55;13.98;99396.84;4956174;28;20505;-51
2022/07/09 11:08:00;;;;;;;5.35;1.38;;;;;;;41.45;14.12;99395.66;4954925;29;20083;-52
2022/07/09 11:10:27;;;;;;;5.38;1.63;;;;;;;41.44;14.18;99388.56;4955042;29;20035;-52
2022/07/09 11:12:59;;;;;;;16.50;5.60;;;;;;;41.41;13.95;99395.63;4956108;28;20059;-53
2022/07/09 11:15:29;;;;;;;11.50;2.10;;;;;;;41.50;14.19;99385.03;4956131;28;20032;-52
2022/07/09 11:17:56;;;;;;;2.97;1.23;;;;;;;41.68;14.09;99384.28;4956116;28;20066;-51
2022/07/09 11:20:21;;;;;;;3.08;1.52;;;;;;;41.78;13.68;99389.00;4954742;29;20027;-52
2022/07/09 11:22:48;;;;;;;12.13;1.60;;;;;;;41.69;14.39;99388.59;4955971;28;20394;-52
2022/07/09 11:25:17;;;;;;;7.38;2.03;;;;;;;41.26;14.57;99377.53;4955919;28;20505;-52
2022/07/09 11:27:44;;;;;;;10.40;1.67;;;;;;;40.88;14.65;99379.78;4955917;28;20494;-51